Aérodrome :
LOGIN :

S'inscrire | Disclaimer

   EN    FR    IT 

 










Légende :    VFR   VFR Marginal   IFR   IFR Intensif   IFR Très Intensif
Visi : 
Plafond : 
>= 8 km
>= 3000ft
5 à 8 km
1000 à 3000 ft
1500m à 5 km
500 à 1000 ft
800 à 1500m
200 à 500 ft
< 800m
< 200 ft
Symboles :   Orages  Brouillard  Fortes neiges  Fortes précipitations  Vent > 20 kt
SIGMETs :   Divers  Orages  Givrage  Turbulence  Onde Orograph.  Cendres Volcan.






- Altitude de l'aérodrome : 124 ft
- Code IATA : AVN


LFMV - Avignon Caumont

DERNIER METAR :
  • 140230Z AUTO 15006KT 9999 BKN049 16/13 Q1018 NOSIG

METARs EXPIRÉS :
  • 140200Z AUTO 16005KT 100V190 9999 FEW048 16/13 Q1018
  • 140130Z AUTO 13006KT 090V160 CAVOK 18/14 Q1019
  • 140100Z AUTO 15004KT CAVOK 14/11 Q1019
  • 140030Z AUTO 13005KT CAVOK 17/13 Q1019
  • 140000Z AUTO 12006KT CAVOK 17/14 Q1019

TAF TAF LFMV
Valide du 14 à 03h jusqu'au 15 à 03h UTC


140200Z 1403/1503 VRB05KT CAVOK
PROB30
TEMPO 1403/1405 5000
BECMG 1405/1406 13010KT
BECMG 1410/1411 15010G20KT
BECMG 1423/1424 BKN030 BKN070
TEMPO 1500/1503 VRB15G35KT 3000 TSRA BKN010 SCT020CB OVC050
ATIS : +33 4 90 84 32 84



MET'MAP, la Météo Aéronautique d'un coup d'oeil ! - Copyright ORBIFLY Décembre 2007 - Disclaimer

ORBIFLY MET'MAP TEAM :

Programmation & Développement : Alexandra Zaïnal
Conception & Développement : Baudouin d'Aumeries
Co-Programmation & Développement : Marc-Olivier Méhu
Soutien technique & logistique : Manuel Goepfert

Contact : metmap@orbifly.com




SOURCES & CREDITS :

   NOAA